sensor_id;sensor_type;location;lat;lon;timestamp;P1;durP1;ratioP1;P2;durP2;ratioP2
48207;SDS011;33997;53.278;9.708;2023-06-24T00:00:07;24.00;;;14.20;;
48207;SDS011;33997;53.278;9.708;2023-06-24T00:02:34;20.52;;;15.43;;
48207;SDS011;33997;53.278;9.708;2023-06-24T00:05:02;19.38;;;14.68;;
48207;SDS011;33997;53.278;9.708;2023-06-24T00:07:29;20.85;;;15.45;;
48207;SDS011;33997;53.278;9.708;2023-06-24T00:09:54;23.50;;;14.77;;
48207;SDS011;33997;53.278;9.708;2023-06-24T00:12:20;23.77;;;15.25;;
48207;SDS011;33997;53.278;9.708;2023-06-24T00:14:46;25.52;;;16.27;;
48207;SDS011;33997;53.278;9.708;2023-06-24T00:17:12;23.40;;;16.63;;
48207;SDS011;33997;53.278;9.708;2023-06-24T00:19:38;25.10;;;16.90;;
48207;SDS011;33997;53.278;9.708;2023-06-24T00:22:04;28.50;;;16.95;;
48207;SDS011;33997;53.278;9.708;2023-06-24T00:24:31;26.27;;;16.48;;
48207;SDS011;33997;53.278;9.708;2023-06-24T00:26:56;23.02;;;16.50;;
48207;SDS011;33997;53.278;9.708;2023-06-24T00:29:22;27.92;;;17.77;;
48207;SDS011;33997;53.278;9.708;2023-06-24T00:31:47;26.02;;;17.80;;
48207;SDS011;33997;53.278;9.708;2023-06-24T00:34:13;32.67;;;18.65;;
48207;SDS011;33997;53.278;9.708;2023-06-24T00:36:39;29.92;;;18.50;;
48207;SDS011;33997;53.278;9.708;2023-06-24T00:39:05;23.92;;;17.13;;
48207;SDS011;33997;53.278;9.708;2023-06-24T00:41:31;28.88;;;18.40;;
48207;SDS011;33997;53.278;9.708;2023-06-24T00:43:58;29.42;;;17.98;;
48207;SDS011;33997;53.278;9.708;2023-06-24T00:46:24;27.30;;;19.00;;
48207;SDS011;33997;53.278;9.708;2023-06-24T00:48:54;23.77;;;17.30;;
48207;SDS011;33997;53.278;9.708;2023-06-24T00:51:20;22.67;;;16.70;;
48207;SDS011;33997;53.278;9.708;2023-06-24T00:53:51;28.38;;;17.42;;
48207;SDS011;33997;53.278;9.708;2023-06-24T00:56:19;25.65;;;16.88;;
48207;SDS011;33997;53.278;9.708;2023-06-24T00:58:49;23.67;;;16.83;;
48207;SDS011;33997;53.278;9.708;2023-06-24T01:01:15;25.58;;;17.52;;
48207;SDS011;33997;53.278;9.708;2023-06-24T01:03:41;23.58;;;17.17;;
48207;SDS011;33997;53.278;9.708;2023-06-24T01:06:07;26.33;;;16.67;;
48207;SDS011;33997;53.278;9.708;2023-06-24T01:08:34;24.85;;;17.52;;
48207;SDS011;33997;53.278;9.708;2023-06-24T01:11:00;25.05;;;18.00;;
48207;SDS011;33997;53.278;9.708;2023-06-24T01:13:25;27.35;;;17.48;;
48207;SDS011;33997;53.278;9.708;2023-06-24T01:15:51;26.70;;;17.70;;
48207;SDS011;33997;53.278;9.708;2023-06-24T01:20:55;26.55;;;17.65;;
48207;SDS011;33997;53.278;9.708;2023-06-24T01:23:33;25.15;;;17.10;;
48207;SDS011;33997;53.278;9.708;2023-06-24T01:32:11;29.55;;;16.85;;
48207;SDS011;33997;53.278;9.708;2023-06-24T01:34:58;25.60;;;16.50;;
48207;SDS011;33997;53.278;9.708;2023-06-24T01:37:52;27.90;;;17.85;;
48207;SDS011;33997;53.278;9.708;2023-06-24T01:40:26;30.58;;;17.55;;
48207;SDS011;33997;53.278;9.708;2023-06-24T01:42:53;33.85;;;18.83;;
48207;SDS011;33997;53.278;9.708;2023-06-24T01:45:23;41.92;;;20.05;;
48207;SDS011;33997;53.278;9.708;2023-06-24T01:48:09;29.48;;;18.88;;
48207;SDS011;33997;53.278;9.708;2023-06-24T01:50:39;30.17;;;18.45;;
48207;SDS011;33997;53.278;9.708;2023-06-24T01:53:22;28.88;;;17.25;;
48207;SDS011;33997;53.278;9.708;2023-06-24T01:55:48;26.75;;;16.98;;
48207;SDS011;33997;53.278;9.708;2023-06-24T01:58:14;33.97;;;18.35;;
48207;SDS011;33997;53.278;9.708;2023-06-24T02:00:43;35.55;;;18.02;;
48207;SDS011;33997;53.278;9.708;2023-06-24T02:03:08;31.17;;;19.17;;
48207;SDS011;33997;53.278;9.708;2023-06-24T02:05:36;37.55;;;18.88;;
48207;SDS011;33997;53.278;9.708;2023-06-24T02:08:04;34.65;;;19.80;;
48207;SDS011;33997;53.278;9.708;2023-06-24T02:10:32;35.72;;;19.60;;
48207;SDS011;33997;53.278;9.708;2023-06-24T02:12:58;33.88;;;20.20;;
48207;SDS011;33997;53.278;9.708;2023-06-24T02:15:24;34.67;;;19.83;;
48207;SDS011;33997;53.278;9.708;2023-06-24T02:17:53;34.17;;;19.58;;
48207;SDS011;33997;53.278;9.708;2023-06-24T02:20:21;39.33;;;22.63;;
48207;SDS011;33997;53.278;9.708;2023-06-24T02:22:52;39.13;;;22.23;;
48207;SDS011;33997;53.278;9.708;2023-06-24T02:25:18;41.17;;;21.70;;
48207;SDS011;33997;53.278;9.708;2023-06-24T02:27:44;41.90;;;23.48;;
48207;SDS011;33997;53.278;9.708;2023-06-24T02:30:11;39.47;;;23.13;;
48207;SDS011;33997;53.278;9.708;2023-06-24T02:32:37;48.38;;;23.65;;
48207;SDS011;33997;53.278;9.708;2023-06-24T02:35:03;46.67;;;24.30;;
48207;SDS011;33997;53.278;9.708;2023-06-24T02:37:29;47.75;;;24.88;;
48207;SDS011;33997;53.278;9.708;2023-06-24T02:39:55;48.30;;;24.90;;
48207;SDS011;33997;53.278;9.708;2023-06-24T02:42:22;52.08;;;26.10;;
48207;SDS011;33997;53.278;9.708;2023-06-24T02:44:47;56.10;;;26.63;;
48207;SDS011;33997;53.278;9.708;2023-06-24T02:47:13;54.45;;;26.17;;
48207;SDS011;33997;53.278;9.708;2023-06-24T02:49:40;64.40;;;28.80;;
48207;SDS011;33997;53.278;9.708;2023-06-24T02:52:11;56.92;;;28.35;;
48207;SDS011;33997;53.278;9.708;2023-06-24T02:54:37;56.92;;;28.88;;
48207;SDS011;33997;53.278;9.708;2023-06-24T02:57:04;57.53;;;27.17;;
48207;SDS011;33997;53.278;9.708;2023-06-24T02:59:31;54.20;;;28.10;;
48207;SDS011;33997;53.278;9.708;2023-06-24T03:01:57;67.43;;;29.17;;
48207;SDS011;33997;53.278;9.708;2023-06-24T03:04:24;60.78;;;28.92;;
48207;SDS011;33997;53.278;9.708;2023-06-24T03:06:51;57.78;;;28.00;;
48207;SDS011;33997;53.278;9.708;2023-06-24T03:09:17;52.83;;;26.85;;
48207;SDS011;33997;53.278;9.708;2023-06-24T03:11:43;57.83;;;27.92;;
48207;SDS011;33997;53.278;9.708;2023-06-24T03:14:09;62.35;;;28.40;;
48207;SDS011;33997;53.278;9.708;2023-06-24T03:16:35;69.25;;;29.75;;
48207;SDS011;33997;53.278;9.708;2023-06-24T03:19:03;66.72;;;30.35;;
48207;SDS011;33997;53.278;9.708;2023-06-24T03:21:28;65.82;;;30.02;;
48207;SDS011;33997;53.278;9.708;2023-06-24T03:23:54;59.92;;;28.48;;
48207;SDS011;33997;53.278;9.708;2023-06-24T03:26:20;66.70;;;29.88;;
48207;SDS011;33997;53.278;9.708;2023-06-24T03:28:46;62.25;;;29.05;;
48207;SDS011;33997;53.278;9.708;2023-06-24T03:31:11;62.50;;;28.52;;
48207;SDS011;33997;53.278;9.708;2023-06-24T03:33:40;57.35;;;28.77;;
48207;SDS011;33997;53.278;9.708;2023-06-24T03:36:09;54.95;;;26.10;;
48207;SDS011;33997;53.278;9.708;2023-06-24T03:38:35;63.45;;;28.27;;
48207;SDS011;33997;53.278;9.708;2023-06-24T03:41:00;57.58;;;27.38;;
48207;SDS011;33997;53.278;9.708;2023-06-24T03:43:26;53.85;;;26.27;;
48207;SDS011;33997;53.278;9.708;2023-06-24T03:45:51;58.78;;;28.20;;
48207;SDS011;33997;53.278;9.708;2023-06-24T03:48:17;61.95;;;28.65;;
48207;SDS011;33997;53.278;9.708;2023-06-24T03:50:42;66.85;;;29.08;;
48207;SDS011;33997;53.278;9.708;2023-06-24T03:53:08;64.82;;;28.67;;
48207;SDS011;33997;53.278;9.708;2023-06-24T03:55:33;59.38;;;27.55;;
48207;SDS011;33997;53.278;9.708;2023-06-24T03:57:58;63.40;;;29.13;;
48207;SDS011;33997;53.278;9.708;2023-06-24T04:00:24;61.03;;;29.38;;
48207;SDS011;33997;53.278;9.708;2023-06-24T04:02:50;71.70;;;30.85;;
48207;SDS011;33997;53.278;9.708;2023-06-24T04:05:17;85.03;;;32.45;;
48207;SDS011;33997;53.278;9.708;2023-06-24T04:07:42;82.93;;;30.60;;
48207;SDS011;33997;53.278;9.708;2023-06-24T04:10:11;76.22;;;31.65;;
48207;SDS011;33997;53.278;9.708;2023-06-24T04:12:37;71.40;;;32.13;;
48207;SDS011;33997;53.278;9.708;2023-06-24T04:15:03;78.45;;;32.53;;
48207;SDS011;33997;53.278;9.708;2023-06-24T04:17:30;78.22;;;32.60;;
48207;SDS011;33997;53.278;9.708;2023-06-24T04:19:56;74.82;;;31.45;;
48207;SDS011;33997;53.278;9.708;2023-06-24T04:22:21;65.75;;;29.98;;
48207;SDS011;33997;53.278;9.708;2023-06-24T04:24:47;78.15;;;33.25;;
48207;SDS011;33997;53.278;9.708;2023-06-24T04:27:12;78.45;;;32.40;;
48207;SDS011;33997;53.278;9.708;2023-06-24T04:29:38;76.47;;;32.55;;
48207;SDS011;33997;53.278;9.708;2023-06-24T04:32:03;68.82;;;31.40;;
48207;SDS011;33997;53.278;9.708;2023-06-24T04:34:29;67.53;;;29.85;;
48207;SDS011;33997;53.278;9.708;2023-06-24T04:36:55;65.30;;;31.02;;
48207;SDS011;33997;53.278;9.708;2023-06-24T04:39:20;69.90;;;30.17;;
48207;SDS011;33997;53.278;9.708;2023-06-24T04:41:46;67.68;;;30.45;;
48207;SDS011;33997;53.278;9.708;2023-06-24T04:44:12;65.72;;;29.05;;
48207;SDS011;33997;53.278;9.708;2023-06-24T04:46:37;75.20;;;29.52;;
48207;SDS011;33997;53.278;9.708;2023-06-24T04:49:04;60.25;;;30.02;;
48207;SDS011;33997;53.278;9.708;2023-06-24T04:51:30;66.95;;;28.90;;
48207;SDS011;33997;53.278;9.708;2023-06-24T04:53:56;77.13;;;26.77;;
48207;SDS011;33997;53.278;9.708;2023-06-24T04:56:22;58.58;;;25.90;;
48207;SDS011;33997;53.278;9.708;2023-06-24T04:58:47;66.32;;;26.27;;
48207;SDS011;33997;53.278;9.708;2023-06-24T05:01:13;82.43;;;26.58;;
48207;SDS011;33997;53.278;9.708;2023-06-24T05:03:39;72.70;;;24.50;;
48207;SDS011;33997;53.278;9.708;2023-06-24T05:06:04;78.00;;;22.85;;
48207;SDS011;33997;53.278;9.708;2023-06-24T05:08:30;59.95;;;21.83;;
48207;SDS011;33997;53.278;9.708;2023-06-24T05:10:55;51.30;;;21.35;;
48207;SDS011;33997;53.278;9.708;2023-06-24T05:13:21;32.47;;;20.10;;
48207;SDS011;33997;53.278;9.708;2023-06-24T05:15:46;46.78;;;20.15;;
48207;SDS011;33997;53.278;9.708;2023-06-24T05:18:11;56.17;;;19.35;;
48207;SDS011;33997;53.278;9.708;2023-06-24T05:20:37;66.53;;;19.58;;
48207;SDS011;33997;53.278;9.708;2023-06-24T05:23:02;42.80;;;18.58;;
48207;SDS011;33997;53.278;9.708;2023-06-24T05:25:28;26.15;;;18.77;;
48207;SDS011;33997;53.278;9.708;2023-06-24T05:27:53;29.40;;;18.65;;
48207;SDS011;33997;53.278;9.708;2023-06-24T05:30:19;26.08;;;19.90;;
48207;SDS011;33997;53.278;9.708;2023-06-24T05:32:44;28.23;;;20.10;;
48207;SDS011;33997;53.278;9.708;2023-06-24T05:35:10;25.55;;;18.52;;
48207;SDS011;33997;53.278;9.708;2023-06-24T05:37:35;26.40;;;18.52;;
48207;SDS011;33997;53.278;9.708;2023-06-24T05:40:01;32.88;;;20.38;;
48207;SDS011;33997;53.278;9.708;2023-06-24T05:42:27;24.40;;;18.73;;
48207;SDS011;33997;53.278;9.708;2023-06-24T05:44:53;26.20;;;19.08;;
48207;SDS011;33997;53.278;9.708;2023-06-24T05:47:18;25.20;;;19.13;;
48207;SDS011;33997;53.278;9.708;2023-06-24T05:49:44;24.00;;;18.95;;
48207;SDS011;33997;53.278;9.708;2023-06-24T05:52:11;26.77;;;19.33;;
48207;SDS011;33997;53.278;9.708;2023-06-24T05:54:37;25.38;;;18.80;;
48207;SDS011;33997;53.278;9.708;2023-06-24T05:57:02;27.95;;;19.48;;
48207;SDS011;33997;53.278;9.708;2023-06-24T05:59:31;27.48;;;18.90;;
48207;SDS011;33997;53.278;9.708;2023-06-24T06:01:57;24.77;;;18.50;;
48207;SDS011;33997;53.278;9.708;2023-06-24T06:04:22;27.42;;;17.58;;
48207;SDS011;33997;53.278;9.708;2023-06-24T06:06:48;25.05;;;17.42;;
48207;SDS011;33997;53.278;9.708;2023-06-24T06:09:13;24.85;;;19.05;;
48207;SDS011;33997;53.278;9.708;2023-06-24T06:11:39;25.30;;;18.20;;
48207;SDS011;33997;53.278;9.708;2023-06-24T06:14:04;23.63;;;17.25;;
48207;SDS011;33997;53.278;9.708;2023-06-24T06:16:30;26.13;;;17.30;;
48207;SDS011;33997;53.278;9.708;2023-06-24T06:18:56;21.17;;;17.20;;
48207;SDS011;33997;53.278;9.708;2023-06-24T06:21:21;25.25;;;17.83;;
48207;SDS011;33997;53.278;9.708;2023-06-24T06:23:47;20.98;;;17.38;;
48207;SDS011;33997;53.278;9.708;2023-06-24T06:26:12;22.90;;;16.77;;
48207;SDS011;33997;53.278;9.708;2023-06-24T06:28:37;19.25;;;14.73;;
48207;SDS011;33997;53.278;9.708;2023-06-24T06:31:03;20.38;;;14.85;;
48207;SDS011;33997;53.278;9.708;2023-06-24T06:33:29;22.95;;;14.13;;
48207;SDS011;33997;53.278;9.708;2023-06-24T06:35:54;22.15;;;14.45;;
48207;SDS011;33997;53.278;9.708;2023-06-24T06:38:20;18.55;;;13.15;;
48207;SDS011;33997;53.278;9.708;2023-06-24T06:40:45;18.13;;;13.52;;
48207;SDS011;33997;53.278;9.708;2023-06-24T06:43:11;18.50;;;13.48;;
48207;SDS011;33997;53.278;9.708;2023-06-24T06:45:36;17.60;;;11.77;;
48207;SDS011;33997;53.278;9.708;2023-06-24T06:48:02;15.70;;;11.95;;
48207;SDS011;33997;53.278;9.708;2023-06-24T06:50:32;16.83;;;12.47;;
48207;SDS011;33997;53.278;9.708;2023-06-24T06:52:57;11.50;;;8.10;;
48207;SDS011;33997;53.278;9.708;2023-06-24T06:55:23;11.30;;;7.75;;
48207;SDS011;33997;53.278;9.708;2023-06-24T06:57:48;13.43;;;8.15;;
48207;SDS011;33997;53.278;9.708;2023-06-24T07:00:14;12.98;;;9.55;;
48207;SDS011;33997;53.278;9.708;2023-06-24T07:02:40;13.30;;;9.40;;
48207;SDS011;33997;53.278;9.708;2023-06-24T07:05:05;13.13;;;9.15;;
48207;SDS011;33997;53.278;9.708;2023-06-24T07:07:31;12.25;;;8.32;;
48207;SDS011;33997;53.278;9.708;2023-06-24T07:09:57;10.90;;;7.60;;
48207;SDS011;33997;53.278;9.708;2023-06-24T07:12:23;10.52;;;7.50;;
48207;SDS011;33997;53.278;9.708;2023-06-24T07:14:49;12.65;;;8.38;;
48207;SDS011;33997;53.278;9.708;2023-06-24T07:17:15;13.98;;;7.05;;
48207;SDS011;33997;53.278;9.708;2023-06-24T07:19:40;10.50;;;6.75;;
48207;SDS011;33997;53.278;9.708;2023-06-24T07:22:06;8.93;;;6.75;;
48207;SDS011;33997;53.278;9.708;2023-06-24T07:24:31;12.27;;;5.95;;
48207;SDS011;33997;53.278;9.708;2023-06-24T07:26:57;11.52;;;7.07;;
48207;SDS011;33997;53.278;9.708;2023-06-24T07:29:22;11.55;;;6.18;;
48207;SDS011;33997;53.278;9.708;2023-06-24T07:31:48;9.52;;;6.05;;
48207;SDS011;33997;53.278;9.708;2023-06-24T07:34:13;13.48;;;6.32;;
48207;SDS011;33997;53.278;9.708;2023-06-24T07:36:39;11.25;;;7.13;;
48207;SDS011;33997;53.278;9.708;2023-06-24T07:39:04;9.93;;;5.88;;
48207;SDS011;33997;53.278;9.708;2023-06-24T07:41:30;7.57;;;5.18;;
48207;SDS011;33997;53.278;9.708;2023-06-24T07:43:57;8.35;;;5.45;;
48207;SDS011;33997;53.278;9.708;2023-06-24T07:46:22;10.82;;;6.70;;
48207;SDS011;33997;53.278;9.708;2023-06-24T07:48:48;9.75;;;7.00;;
48207;SDS011;33997;53.278;9.708;2023-06-24T07:51:13;9.68;;;6.20;;
48207;SDS011;33997;53.278;9.708;2023-06-24T07:53:39;9.98;;;5.90;;
48207;SDS011;33997;53.278;9.708;2023-06-24T07:56:04;9.05;;;6.25;;
48207;SDS011;33997;53.278;9.708;2023-06-24T07:58:29;7.85;;;4.93;;
48207;SDS011;33997;53.278;9.708;2023-06-24T08:00:55;8.48;;;5.38;;
48207;SDS011;33997;53.278;9.708;2023-06-24T08:03:20;9.68;;;5.50;;
48207;SDS011;33997;53.278;9.708;2023-06-24T08:05:46;10.70;;;4.88;;
48207;SDS011;33997;53.278;9.708;2023-06-24T08:08:12;11.48;;;4.88;;
48207;SDS011;33997;53.278;9.708;2023-06-24T08:10:37;7.78;;;5.05;;
48207;SDS011;33997;53.278;9.708;2023-06-24T08:13:03;9.00;;;5.30;;
48207;SDS011;33997;53.278;9.708;2023-06-24T08:15:28;7.97;;;5.30;;
48207;SDS011;33997;53.278;9.708;2023-06-24T08:17:54;11.07;;;5.25;;
48207;SDS011;33997;53.278;9.708;2023-06-24T08:20:20;8.77;;;5.15;;
48207;SDS011;33997;53.278;9.708;2023-06-24T08:22:46;8.50;;;4.97;;
48207;SDS011;33997;53.278;9.708;2023-06-24T08:25:11;7.93;;;5.13;;
48207;SDS011;33997;53.278;9.708;2023-06-24T08:27:37;10.35;;;5.45;;
48207;SDS011;33997;53.278;9.708;2023-06-24T08:30:04;10.52;;;5.45;;
48207;SDS011;33997;53.278;9.708;2023-06-24T08:32:30;9.30;;;5.18;;
48207;SDS011;33997;53.278;9.708;2023-06-24T08:34:56;8.60;;;5.40;;
48207;SDS011;33997;53.278;9.708;2023-06-24T08:37:21;7.65;;;5.30;;
48207;SDS011;33997;53.278;9.708;2023-06-24T08:39:46;6.55;;;4.82;;
48207;SDS011;33997;53.278;9.708;2023-06-24T08:42:12;7.95;;;4.70;;
48207;SDS011;33997;53.278;9.708;2023-06-24T08:44:37;9.57;;;5.30;;
48207;SDS011;33997;53.278;9.708;2023-06-24T08:47:03;8.43;;;5.20;;
48207;SDS011;33997;53.278;9.708;2023-06-24T08:49:29;8.55;;;5.28;;
48207;SDS011;33997;53.278;9.708;2023-06-24T08:54:24;9.13;;;5.32;;
48207;SDS011;33997;53.278;9.708;2023-06-24T08:56:50;8.10;;;5.03;;
48207;SDS011;33997;53.278;9.708;2023-06-24T08:59:16;8.40;;;4.80;;
48207;SDS011;33997;53.278;9.708;2023-06-24T09:01:44;8.80;;;4.68;;
48207;SDS011;33997;53.278;9.708;2023-06-24T09:04:11;7.40;;;5.13;;
48207;SDS011;33997;53.278;9.708;2023-06-24T09:06:36;7.22;;;4.80;;
48207;SDS011;33997;53.278;9.708;2023-06-24T09:09:02;9.27;;;4.97;;
48207;SDS011;33997;53.278;9.708;2023-06-24T09:11:27;10.23;;;5.35;;
48207;SDS011;33997;53.278;9.708;2023-06-24T09:13:54;8.07;;;5.03;;
48207;SDS011;33997;53.278;9.708;2023-06-24T09:16:20;8.57;;;5.40;;
48207;SDS011;33997;53.278;9.708;2023-06-24T09:18:49;8.70;;;5.25;;
48207;SDS011;33997;53.278;9.708;2023-06-24T09:23:55;7.70;;;5.10;;
48207;SDS011;33997;53.278;9.708;2023-06-24T09:26:24;8.30;;;5.30;;
48207;SDS011;33997;53.278;9.708;2023-06-24T09:28:50;11.27;;;5.03;;
48207;SDS011;33997;53.278;9.708;2023-06-24T09:31:16;9.35;;;4.65;;
48207;SDS011;33997;53.278;9.708;2023-06-24T09:33:42;7.07;;;4.60;;
48207;SDS011;33997;53.278;9.708;2023-06-24T09:36:11;9.68;;;5.15;;
48207;SDS011;33997;53.278;9.708;2023-06-24T09:38:37;7.80;;;4.68;;
48207;SDS011;33997;53.278;9.708;2023-06-24T09:41:05;7.97;;;5.30;;
48207;SDS011;33997;53.278;9.708;2023-06-24T09:43:35;8.88;;;5.07;;
48207;SDS011;33997;53.278;9.708;2023-06-24T09:46:02;7.20;;;5.07;;
48207;SDS011;33997;53.278;9.708;2023-06-24T09:48:28;10.48;;;4.97;;
48207;SDS011;33997;53.278;9.708;2023-06-24T09:50:59;8.77;;;4.85;;
48207;SDS011;33997;53.278;9.708;2023-06-24T09:53:27;7.97;;;4.18;;
48207;SDS011;33997;53.278;9.708;2023-06-24T09:55:55;6.82;;;4.70;;
48207;SDS011;33997;53.278;9.708;2023-06-24T09:58:21;8.57;;;4.68;;
48207;SDS011;33997;53.278;9.708;2023-06-24T10:00:48;8.50;;;5.07;;
48207;SDS011;33997;53.278;9.708;2023-06-24T10:03:15;11.20;;;5.20;;
48207;SDS011;33997;53.278;9.708;2023-06-24T10:05:41;7.30;;;4.60;;
48207;SDS011;33997;53.278;9.708;2023-06-24T10:08:08;7.57;;;4.70;;
48207;SDS011;33997;53.278;9.708;2023-06-24T10:10:34;8.40;;;4.47;;
48207;SDS011;33997;53.278;9.708;2023-06-24T10:13:00;6.55;;;4.22;;
48207;SDS011;33997;53.278;9.708;2023-06-24T10:15:25;6.60;;;4.07;;
48207;SDS011;33997;53.278;9.708;2023-06-24T10:17:51;7.25;;;4.82;;
48207;SDS011;33997;53.278;9.708;2023-06-24T10:20:26;6.25;;;4.65;;
48207;SDS011;33997;53.278;9.708;2023-06-24T10:22:51;5.95;;;4.30;;
48207;SDS011;33997;53.278;9.708;2023-06-24T10:25:17;7.03;;;4.45;;
48207;SDS011;33997;53.278;9.708;2023-06-24T10:27:43;5.88;;;3.92;;
48207;SDS011;33997;53.278;9.708;2023-06-24T10:30:18;4.95;;;3.25;;
48207;SDS011;33997;53.278;9.708;2023-06-24T10:32:44;6.35;;;4.10;;
48207;SDS011;33997;53.278;9.708;2023-06-24T10:37:58;6.32;;;3.38;;
48207;SDS011;33997;53.278;9.708;2023-06-24T10:40:43;5.13;;;3.22;;
48207;SDS011;33997;53.278;9.708;2023-06-24T10:43:23;5.88;;;3.10;;
48207;SDS011;33997;53.278;9.708;2023-06-24T10:45:54;6.63;;;3.38;;
48207;SDS011;33997;53.278;9.708;2023-06-24T10:48:23;6.68;;;3.38;;
48207;SDS011;33997;53.278;9.708;2023-06-24T10:50:49;6.30;;;2.97;;
48207;SDS011;33997;53.278;9.708;2023-06-24T10:53:14;6.20;;;4.03;;
48207;SDS011;33997;53.278;9.708;2023-06-24T10:55:40;6.53;;;3.45;;
48207;SDS011;33997;53.278;9.708;2023-06-24T10:58:08;7.88;;;3.50;;
48207;SDS011;33997;53.278;9.708;2023-06-24T11:00:35;6.43;;;3.40;;
48207;SDS011;33997;53.278;9.708;2023-06-24T11:03:10;5.78;;;3.55;;
48207;SDS011;33997;53.278;9.708;2023-06-24T11:05:38;5.10;;;3.13;;
48207;SDS011;33997;53.278;9.708;2023-06-24T11:08:05;9.85;;;3.85;;
48207;SDS011;33997;53.278;9.708;2023-06-24T11:10:31;6.88;;;4.57;;
48207;SDS011;33997;53.278;9.708;2023-06-24T11:12:56;5.60;;;3.63;;
48207;SDS011;33997;53.278;9.708;2023-06-24T11:15:23;4.97;;;3.60;;
48207;SDS011;33997;53.278;9.708;2023-06-24T11:17:50;6.53;;;4.05;;
48207;SDS011;33997;53.278;9.708;2023-06-24T11:20:16;6.03;;;3.70;;
48207;SDS011;33997;53.278;9.708;2023-06-24T11:22:42;7.60;;;4.10;;
48207;SDS011;33997;53.278;9.708;2023-06-24T11:25:18;5.95;;;3.45;;
48207;SDS011;33997;53.278;9.708;2023-06-24T11:27:45;5.35;;;3.47;;
48207;SDS011;33997;53.278;9.708;2023-06-24T11:30:11;7.65;;;3.78;;
48207;SDS011;33997;53.278;9.708;2023-06-24T11:32:38;6.82;;;2.90;;
48207;SDS011;33997;53.278;9.708;2023-06-24T11:35:05;5.78;;;2.85;;
48207;SDS011;33997;53.278;9.708;2023-06-24T11:37:32;5.68;;;3.33;;
48207;SDS011;33997;53.278;9.708;2023-06-24T11:40:04;6.25;;;3.03;;
48207;SDS011;33997;53.278;9.708;2023-06-24T11:42:37;5.10;;;3.13;;
48207;SDS011;33997;53.278;9.708;2023-06-24T11:45:05;4.45;;;2.88;;
48207;SDS011;33997;53.278;9.708;2023-06-24T11:47:34;6.82;;;2.97;;
48207;SDS011;33997;53.278;9.708;2023-06-24T11:50:00;4.95;;;2.50;;
48207;SDS011;33997;53.278;9.708;2023-06-24T11:55:19;6.18;;;3.05;;
48207;SDS011;33997;53.278;9.708;2023-06-24T11:57:47;4.53;;;2.80;;
48207;SDS011;33997;53.278;9.708;2023-06-24T12:00:20;5.57;;;2.80;;
48207;SDS011;33997;53.278;9.708;2023-06-24T12:03:07;4.50;;;2.70;;
48207;SDS011;33997;53.278;9.708;2023-06-24T12:05:34;4.50;;;2.90;;
48207;SDS011;33997;53.278;9.708;2023-06-24T12:08:01;6.72;;;3.00;;
48207;SDS011;33997;53.278;9.708;2023-06-24T12:10:31;4.15;;;2.55;;
48207;SDS011;33997;53.278;9.708;2023-06-24T12:12:58;4.22;;;2.88;;
48207;SDS011;33997;53.278;9.708;2023-06-24T12:15:25;4.53;;;2.80;;
48207;SDS011;33997;53.278;9.708;2023-06-24T12:17:51;5.25;;;3.22;;
48207;SDS011;33997;53.278;9.708;2023-06-24T12:20:17;4.70;;;2.38;;
48207;SDS011;33997;53.278;9.708;2023-06-24T12:22:43;8.80;;;3.35;;
48207;SDS011;33997;53.278;9.708;2023-06-24T12:25:13;5.03;;;2.60;;
48207;SDS011;33997;53.278;9.708;2023-06-24T12:27:38;6.85;;;2.72;;
48207;SDS011;33997;53.278;9.708;2023-06-24T12:30:05;5.32;;;3.00;;
48207;SDS011;33997;53.278;9.708;2023-06-24T12:32:31;5.20;;;2.58;;
48207;SDS011;33997;53.278;9.708;2023-06-24T12:34:57;6.10;;;2.65;;
48207;SDS011;33997;53.278;9.708;2023-06-24T12:37:22;5.72;;;2.63;;
48207;SDS011;33997;53.278;9.708;2023-06-24T12:39:48;7.00;;;3.38;;
48207;SDS011;33997;53.278;9.708;2023-06-24T12:42:15;6.93;;;3.15;;
48207;SDS011;33997;53.278;9.708;2023-06-24T12:44:41;4.10;;;2.72;;
48207;SDS011;33997;53.278;9.708;2023-06-24T12:47:07;7.57;;;2.80;;
48207;SDS011;33997;53.278;9.708;2023-06-24T12:49:32;4.88;;;2.60;;
48207;SDS011;33997;53.278;9.708;2023-06-24T12:51:58;4.07;;;2.50;;
48207;SDS011;33997;53.278;9.708;2023-06-24T12:54:23;5.75;;;3.28;;
48207;SDS011;33997;53.278;9.708;2023-06-24T12:56:48;4.55;;;2.67;;
48207;SDS011;33997;53.278;9.708;2023-06-24T12:59:14;4.57;;;2.40;;
48207;SDS011;33997;53.278;9.708;2023-06-24T13:01:39;5.32;;;2.65;;
48207;SDS011;33997;53.278;9.708;2023-06-24T13:04:09;4.22;;;2.85;;
48207;SDS011;33997;53.278;9.708;2023-06-24T13:06:35;6.15;;;3.08;;
48207;SDS011;33997;53.278;9.708;2023-06-24T13:09:01;5.50;;;3.05;;
48207;SDS011;33997;53.278;9.708;2023-06-24T13:11:27;6.63;;;3.00;;
48207;SDS011;33997;53.278;9.708;2023-06-24T13:13:52;6.45;;;3.17;;
48207;SDS011;33997;53.278;9.708;2023-06-24T13:16:18;4.63;;;3.17;;
48207;SDS011;33997;53.278;9.708;2023-06-24T13:18:43;6.25;;;2.95;;
48207;SDS011;33997;53.278;9.708;2023-06-24T13:21:09;6.05;;;3.53;;
48207;SDS011;33997;53.278;9.708;2023-06-24T13:23:35;7.63;;;3.40;;
48207;SDS011;33997;53.278;9.708;2023-06-24T13:26:03;4.82;;;3.05;;
48207;SDS011;33997;53.278;9.708;2023-06-24T13:28:29;5.70;;;3.35;;
48207;SDS011;33997;53.278;9.708;2023-06-24T13:30:56;7.30;;;3.42;;
48207;SDS011;33997;53.278;9.708;2023-06-24T13:33:22;5.20;;;2.83;;
48207;SDS011;33997;53.278;9.708;2023-06-24T13:35:47;6.82;;;3.33;;
48207;SDS011;33997;53.278;9.708;2023-06-24T13:38:14;4.03;;;2.83;;
48207;SDS011;33997;53.278;9.708;2023-06-24T13:40:40;4.32;;;3.15;;
48207;SDS011;33997;53.278;9.708;2023-06-24T13:43:05;4.22;;;3.10;;
48207;SDS011;33997;53.278;9.708;2023-06-24T13:45:31;6.93;;;3.20;;
48207;SDS011;33997;53.278;9.708;2023-06-24T13:47:56;5.38;;;2.60;;
48207;SDS011;33997;53.278;9.708;2023-06-24T13:50:22;5.22;;;3.13;;
48207;SDS011;33997;53.278;9.708;2023-06-24T13:52:48;5.30;;;3.10;;
48207;SDS011;33997;53.278;9.708;2023-06-24T13:55:13;7.45;;;2.58;;
48207;SDS011;33997;53.278;9.708;2023-06-24T13:57:39;5.18;;;3.00;;
48207;SDS011;33997;53.278;9.708;2023-06-24T14:00:05;6.00;;;2.65;;
48207;SDS011;33997;53.278;9.708;2023-06-24T14:02:31;7.40;;;2.65;;
48207;SDS011;33997;53.278;9.708;2023-06-24T14:04:56;4.55;;;2.80;;
48207;SDS011;33997;53.278;9.708;2023-06-24T14:07:22;6.88;;;2.63;;
48207;SDS011;33997;53.278;9.708;2023-06-24T14:09:48;4.47;;;2.70;;
48207;SDS011;33997;53.278;9.708;2023-06-24T14:12:14;4.47;;;2.97;;
48207;SDS011;33997;53.278;9.708;2023-06-24T14:14:40;5.90;;;2.67;;
48207;SDS011;33997;53.278;9.708;2023-06-24T14:17:06;4.15;;;2.50;;
48207;SDS011;33997;53.278;9.708;2023-06-24T14:19:36;5.03;;;2.65;;
48207;SDS011;33997;53.278;9.708;2023-06-24T14:22:02;4.60;;;2.80;;
48207;SDS011;33997;53.278;9.708;2023-06-24T14:24:27;3.63;;;2.38;;
48207;SDS011;33997;53.278;9.708;2023-06-24T14:26:53;3.78;;;2.67;;
48207;SDS011;33997;53.278;9.708;2023-06-24T14:29:18;5.18;;;2.70;;
48207;SDS011;33997;53.278;9.708;2023-06-24T14:31:44;4.40;;;2.60;;
48207;SDS011;33997;53.278;9.708;2023-06-24T14:34:10;6.00;;;2.92;;
48207;SDS011;33997;53.278;9.708;2023-06-24T14:36:35;5.72;;;3.22;;
48207;SDS011;33997;53.278;9.708;2023-06-24T14:39:01;5.50;;;2.70;;
48207;SDS011;33997;53.278;9.708;2023-06-24T14:41:26;3.33;;;2.58;;
48207;SDS011;33997;53.278;9.708;2023-06-24T14:43:52;6.45;;;3.15;;
48207;SDS011;33997;53.278;9.708;2023-06-24T14:46:17;5.15;;;2.55;;
48207;SDS011;33997;53.278;9.708;2023-06-24T14:48:43;4.47;;;2.40;;